createdAt,value
2023-02-02T00:01:00.153Z,2.60
2023-02-02T00:03:51.277Z,2.88
2023-02-02T00:06:41.150Z,2.35
2023-02-02T00:09:32.591Z,2.95
2023-02-02T00:12:22.447Z,2.97
2023-02-02T00:15:12.396Z,2.63
2023-02-02T00:18:02.705Z,2.78
2023-02-02T00:20:53.638Z,2.75
2023-02-02T00:23:43.634Z,2.70
2023-02-02T00:26:33.736Z,2.28
2023-02-02T00:29:29.538Z,2.35
2023-02-02T00:32:20.437Z,2.63
2023-02-02T00:35:10.941Z,3.03
2023-02-02T00:38:00.767Z,2.95
2023-02-02T00:40:50.790Z,2.55
2023-02-02T00:43:40.725Z,2.08
2023-02-02T00:46:31.362Z,2.90
2023-02-02T00:49:21.681Z,2.55
2023-02-02T00:52:11.869Z,2.30
2023-02-02T00:55:01.824Z,2.42
2023-02-02T00:57:53.851Z,3.17
2023-02-02T01:00:44.579Z,2.67
2023-02-02T01:03:35.116Z,2.53
2023-02-02T01:06:26.564Z,2.17
2023-02-02T01:09:16.455Z,2.42
2023-02-02T01:12:06.460Z,3.58
2023-02-02T01:14:56.733Z,2.40
2023-02-02T01:17:47.103Z,2.40
2023-02-02T01:20:36.887Z,2.42
2023-02-02T01:23:27.299Z,2.33
2023-02-02T01:26:17.953Z,3.28
2023-02-02T01:29:08.204Z,2.63
2023-02-02T01:31:58.022Z,3.42
2023-02-02T01:34:48.636Z,2.78
2023-02-02T01:37:39.058Z,2.60
2023-02-02T01:40:29.356Z,2.78
2023-02-02T01:43:26.968Z,3.50
2023-02-02T01:46:34.827Z,3.33
2023-02-02T01:49:25.520Z,2.45
2023-02-02T01:52:19.678Z,3.05
2023-02-02T01:55:12.888Z,3.50
2023-02-02T01:58:09.219Z,2.90
2023-02-02T02:00:59.454Z,3.17
2023-02-02T02:03:49.869Z,3.28
2023-02-02T02:06:40.172Z,3.33
2023-02-02T02:09:30.296Z,3.25
2023-02-02T02:12:20.858Z,2.70
2023-02-02T02:15:29.815Z,3.05
2023-02-02T02:18:45.666Z,2.63
2023-02-02T02:21:54.368Z,3.00
2023-02-02T02:25:15.343Z,3.38
2023-02-02T02:28:18.698Z,3.00
2023-02-02T02:31:23.746Z,3.75
2023-02-02T02:34:42.053Z,3.05
2023-02-02T02:37:52.893Z,3.13
2023-02-02T02:40:49.561Z,3.10
2023-02-02T02:43:54.201Z,3.58
2023-02-02T02:46:45.696Z,2.75
2023-02-02T02:49:46.032Z,3.60
2023-02-02T02:52:37.157Z,3.33
2023-02-02T02:55:37.330Z,3.58
2023-02-02T02:58:49.557Z,3.55
2023-02-02T03:01:55.696Z,3.15
2023-02-02T03:04:58.488Z,3.22
2023-02-02T03:07:55.297Z,3.70
2023-02-02T03:10:46.443Z,3.65
2023-02-02T03:13:37.003Z,3.65
2023-02-02T03:16:26.943Z,3.55
2023-02-02T03:19:16.784Z,3.58
2023-02-02T03:22:06.874Z,4.05
2023-02-02T03:24:59.423Z,2.97
2023-02-02T03:27:50.029Z,2.83
2023-02-02T03:30:41.798Z,3.30
2023-02-02T03:33:35.483Z,3.47
2023-02-02T03:36:25.962Z,3.35
2023-02-02T03:39:16.098Z,3.42
2023-02-02T03:42:06.034Z,3.40
2023-02-02T03:44:55.945Z,4.25
2023-02-02T03:47:45.790Z,3.75
2023-02-02T03:50:37.133Z,3.55
2023-02-02T03:53:27.012Z,3.17
2023-02-02T03:56:17.128Z,3.28
2023-02-02T03:59:07.049Z,2.88
2023-02-02T04:01:57.078Z,3.35
2023-02-02T04:04:47.524Z,2.75
2023-02-02T04:07:37.553Z,3.00
2023-02-02T04:10:27.640Z,3.55
2023-02-02T04:13:17.587Z,4.15
2023-02-02T04:16:07.528Z,3.30
2023-02-02T04:18:57.446Z,3.30
2023-02-02T04:21:47.317Z,3.33
2023-02-02T04:24:38.134Z,3.35
2023-02-02T04:27:31.491Z,4.57
2023-02-02T04:30:21.390Z,3.83
2023-02-02T04:33:11.457Z,3.67
2023-02-02T04:36:01.436Z,3.22
2023-02-02T04:38:52.963Z,3.22
2023-02-02T04:41:42.957Z,3.85
2023-02-02T04:44:32.942Z,3.15
2023-02-02T04:47:22.876Z,3.08
2023-02-02T04:50:12.652Z,3.72
2023-02-02T04:53:03.639Z,3.90
2023-02-02T04:55:53.589Z,2.95
2023-02-02T04:58:45.096Z,3.30
2023-02-02T05:01:34.973Z,3.45
2023-02-02T05:04:25.176Z,3.45
2023-02-02T05:07:15.367Z,3.00
2023-02-02T05:10:06.535Z,3.55
2023-02-02T05:12:56.695Z,3.05
2023-02-02T05:15:46.554Z,3.25
2023-02-02T05:18:36.460Z,2.70
2023-02-02T05:21:26.700Z,3.25
2023-02-02T05:24:17.028Z,3.10
2023-02-02T05:27:06.936Z,3.45
2023-02-02T05:29:56.883Z,3.65
2023-02-02T05:32:46.894Z,3.30
2023-02-02T05:35:36.955Z,2.85
2023-02-02T05:38:27.344Z,3.05
2023-02-02T05:41:17.331Z,2.85
2023-02-02T05:44:08.945Z,3.42
2023-02-02T05:46:59.141Z,3.15
2023-02-02T05:49:49.737Z,3.63
2023-02-02T05:52:41.800Z,3.22
2023-02-02T05:55:32.100Z,3.70
2023-02-02T05:58:22.170Z,2.45
2023-02-02T06:01:12.174Z,3.28
2023-02-02T06:04:02.297Z,3.67
2023-02-02T06:06:52.721Z,3.03
2023-02-02T06:09:43.088Z,3.70
2023-02-02T06:12:32.901Z,3.38
2023-02-02T06:15:22.912Z,3.10
2023-02-02T06:18:13.170Z,3.58
2023-02-02T06:21:05.967Z,3.63
2023-02-02T06:23:55.977Z,3.95
2023-02-02T06:26:46.156Z,2.95
2023-02-02T06:29:36.777Z,3.80
2023-02-02T06:32:29.233Z,3.03
2023-02-02T06:35:19.779Z,3.25
2023-02-02T06:38:10.945Z,2.88
2023-02-02T06:41:02.191Z,3.55
2023-02-02T06:43:52.394Z,4.40
2023-02-02T06:46:43.040Z,3.45
2023-02-02T06:49:33.078Z,3.40
2023-02-02T06:52:22.944Z,4.15
2023-02-02T06:55:12.939Z,3.35
2023-02-02T06:58:02.770Z,3.17
2023-02-02T07:00:52.960Z,3.25
2023-02-02T07:03:43.082Z,3.35
2023-02-02T07:06:33.334Z,3.17
2023-02-02T07:09:23.537Z,3.03
2023-02-02T07:12:13.547Z,3.28
2023-02-02T07:15:03.968Z,3.40
2023-02-02T07:17:54.643Z,4.57
2023-02-02T07:20:44.628Z,3.58
2023-02-02T07:23:34.662Z,3.53
2023-02-02T07:26:24.761Z,2.88
2023-02-02T07:29:14.699Z,4.05
2023-02-02T07:32:05.349Z,3.35
2023-02-02T07:34:55.265Z,3.50
2023-02-02T07:37:51.676Z,3.42
2023-02-02T07:40:41.764Z,3.50
2023-02-02T07:43:31.842Z,4.07
2023-02-02T07:46:22.307Z,3.63
2023-02-02T07:49:14.701Z,3.88
2023-02-02T07:52:04.924Z,3.88
2023-02-02T07:55:05.364Z,2.72
2023-02-02T07:58:04.171Z,3.15
2023-02-02T08:00:54.314Z,3.42
2023-02-02T08:03:44.720Z,3.33
2023-02-02T08:06:36.965Z,3.53
2023-02-02T08:09:27.025Z,3.88
2023-02-02T08:12:17.062Z,3.80
2023-02-02T08:15:08.437Z,3.72
2023-02-02T08:17:59.181Z,2.88
2023-02-02T08:20:49.570Z,3.83
2023-02-02T08:23:41.646Z,3.72
2023-02-02T08:26:32.227Z,4.18
2023-02-02T08:29:22.685Z,3.42
2023-02-02T08:32:12.701Z,3.45
2023-02-02T08:35:02.679Z,3.47
2023-02-02T08:37:53.060Z,2.92
2023-02-02T08:40:42.912Z,4.15
2023-02-02T08:43:32.743Z,3.33
2023-02-02T08:46:22.890Z,4.60
2023-02-02T08:49:13.507Z,3.50
2023-02-02T08:52:03.562Z,3.38
2023-02-02T08:54:53.808Z,4.45
2023-02-02T08:57:43.977Z,3.60
2023-02-02T09:00:33.971Z,4.13
2023-02-02T09:03:23.910Z,3.47
2023-02-02T09:06:17.494Z,4.03
2023-02-02T09:09:09.890Z,3.67
2023-02-02T09:12:00.364Z,4.43
2023-02-02T09:14:50.517Z,3.95
2023-02-02T09:17:40.464Z,4.45
2023-02-02T09:20:30.406Z,3.83
2023-02-02T09:23:21.193Z,4.03
2023-02-02T09:26:13.865Z,4.10
2023-02-02T09:29:05.437Z,4.15
2023-02-02T09:31:55.544Z,4.32
2023-02-02T09:34:45.887Z,4.90
2023-02-02T09:37:35.804Z,5.45
2023-02-02T09:40:27.929Z,4.80
2023-02-02T09:43:48.962Z,4.30
2023-02-02T09:46:41.871Z,4.20
2023-02-02T09:49:48.732Z,4.00
2023-02-02T09:52:43.899Z,4.10
2023-02-02T09:55:37.841Z,4.07
2023-02-02T09:58:34.038Z,3.80
2023-02-02T10:01:38.791Z,3.75
2023-02-02T10:04:36.361Z,4.00
2023-02-02T10:07:39.376Z,4.50
2023-02-02T10:10:50.189Z,4.10
2023-02-02T10:13:43.529Z,4.53
2023-02-02T10:16:37.331Z,3.95
2023-02-02T10:19:29.207Z,4.00
2023-02-02T10:22:27.913Z,4.15
2023-02-02T10:25:22.517Z,4.00
2023-02-02T10:28:27.402Z,4.15
2023-02-02T10:31:28.043Z,4.22
2023-02-02T10:34:40.965Z,4.07
2023-02-02T10:37:54.026Z,3.75
2023-02-02T10:41:16.758Z,4.57
2023-02-02T10:44:39.825Z,4.13
2023-02-02T10:47:33.225Z,4.47
2023-02-02T10:50:24.255Z,3.97
2023-02-02T10:53:15.875Z,3.33
2023-02-02T10:56:11.679Z,3.80
2023-02-02T10:59:32.252Z,3.50
2023-02-02T11:02:22.322Z,4.00
2023-02-02T11:05:37.856Z,3.58
2023-02-02T11:08:39.434Z,3.63
2023-02-02T11:11:41.413Z,4.13
2023-02-02T11:14:45.482Z,3.22
2023-02-02T11:17:36.246Z,3.10
2023-02-02T11:20:35.386Z,4.20
2023-02-02T11:23:28.127Z,4.03
2023-02-02T11:26:18.587Z,3.60
2023-02-02T11:29:18.259Z,3.72
2023-02-02T11:32:32.572Z,2.97
2023-02-02T11:35:29.584Z,3.42
2023-02-02T11:38:19.527Z,3.38
2023-02-02T11:41:13.595Z,3.50
2023-02-02T11:44:06.433Z,3.38
2023-02-02T11:46:57.365Z,3.45
2023-02-02T11:49:48.337Z,3.70
2023-02-02T11:52:40.361Z,3.20
2023-02-02T11:55:32.500Z,2.90
2023-02-02T11:58:27.985Z,3.50
2023-02-02T12:01:31.035Z,3.03
2023-02-02T12:04:23.384Z,2.78
2023-02-02T12:07:32.506Z,3.08
2023-02-02T12:10:29.243Z,3.10
2023-02-02T12:13:43.092Z,3.30
2023-02-02T12:16:55.535Z,2.90
2023-02-02T12:20:10.503Z,3.00
2023-02-02T12:23:21.737Z,3.08
2023-02-02T12:26:17.710Z,2.70
2023-02-02T12:29:32.539Z,3.30
2023-02-02T12:35:15.944Z,2.95
2023-02-02T12:38:16.488Z,2.75
2023-02-02T12:41:18.642Z,3.17
2023-02-02T12:44:39.915Z,3.08
2023-02-02T12:47:44.609Z,3.25
2023-02-02T12:51:11.591Z,3.55
2023-02-02T12:54:33.849Z,3.50
2023-02-02T12:57:34.579Z,3.30
2023-02-02T13:00:40.674Z,3.65
2023-02-02T13:04:02.455Z,2.92
2023-02-02T13:06:56.437Z,4.03
2023-02-02T13:10:01.049Z,3.67
2023-02-02T13:13:00.200Z,3.65
2023-02-02T13:15:55.029Z,4.20
2023-02-02T13:19:04.555Z,3.65
2023-02-02T13:21:57.931Z,3.10
2023-02-02T13:24:50.790Z,3.83
2023-02-02T13:27:42.270Z,3.83
2023-02-02T13:30:36.111Z,3.83
2023-02-02T13:33:32.561Z,3.22
2023-02-02T13:36:29.681Z,3.13
2023-02-02T13:39:33.309Z,3.45
2023-02-02T13:42:38.138Z,3.17
2023-02-02T13:46:00.645Z,3.45
2023-02-02T13:49:00.266Z,3.17
2023-02-02T13:51:54.777Z,3.63
2023-02-02T13:55:22.531Z,3.22
2023-02-02T13:58:29.168Z,3.00
2023-02-02T14:01:20.504Z,2.90
2023-02-02T14:04:21.976Z,3.50
2023-02-02T14:07:12.801Z,2.78
2023-02-02T14:10:04.356Z,2.70
2023-02-02T14:12:55.842Z,3.10
2023-02-02T14:15:45.774Z,2.70
2023-02-02T14:18:55.673Z,2.72
2023-02-02T14:21:48.873Z,2.58
2023-02-02T14:25:24.120Z,2.67
2023-02-02T14:28:39.402Z,3.28
2023-02-02T14:31:43.196Z,3.15
2023-02-02T14:34:40.150Z,2.78
2023-02-02T14:37:41.409Z,3.20
2023-02-02T14:40:47.290Z,3.15
2023-02-02T14:43:50.903Z,2.83
2023-02-02T14:46:48.086Z,3.58
2023-02-02T14:49:37.974Z,3.47
2023-02-02T14:52:28.232Z,2.60
2023-02-02T14:55:19.973Z,2.95
2023-02-02T14:58:10.186Z,2.58
2023-02-02T15:01:27.016Z,2.45
2023-02-02T15:04:19.981Z,2.90
2023-02-02T15:07:33.390Z,2.75
2023-02-02T15:11:00.232Z,2.40
2023-02-02T15:13:56.027Z,2.17
2023-02-02T15:16:46.401Z,2.50
2023-02-02T15:19:41.326Z,2.53
2023-02-02T15:22:48.578Z,2.17
2023-02-02T15:25:47.685Z,2.72
2023-02-02T15:28:41.307Z,2.50
2023-02-02T15:31:47.163Z,2.55
2023-02-02T15:34:45.589Z,2.22
2023-02-02T15:37:41.538Z,2.53
2023-02-02T15:40:32.247Z,2.90
2023-02-02T15:43:24.352Z,2.22
2023-02-02T15:46:24.383Z,2.25
2023-02-02T15:49:34.899Z,2.72
2023-02-02T15:52:35.337Z,2.40
2023-02-02T15:55:36.177Z,2.25
2023-02-02T15:58:30.718Z,3.05
2023-02-02T16:01:24.094Z,2.00
2023-02-02T16:04:31.042Z,2.00
2023-02-02T16:07:28.662Z,1.88
2023-02-02T16:10:21.264Z,2.22
2023-02-02T16:13:24.924Z,2.10
2023-02-02T16:16:30.665Z,2.33
2023-02-02T16:19:26.511Z,2.10
2023-02-02T16:22:21.198Z,2.20
2023-02-02T16:25:18.530Z,2.20
2023-02-02T16:28:14.831Z,2.33
2023-02-02T16:31:05.354Z,2.45
2023-02-02T16:33:56.898Z,2.67
2023-02-02T16:37:12.223Z,2.50
2023-02-02T16:40:23.906Z,3.42
2023-02-02T16:43:18.443Z,2.17
2023-02-02T16:46:15.186Z,2.35
2023-02-02T16:49:06.085Z,2.90
2023-02-02T16:52:15.511Z,1.88
2023-02-02T16:55:09.834Z,2.00
2023-02-02T16:58:01.960Z,2.08
2023-02-02T17:01:14.161Z,1.80
2023-02-02T17:04:07.953Z,2.00
2023-02-02T17:07:10.045Z,1.92
2023-02-02T17:10:14.664Z,1.50
2023-02-02T17:13:30.348Z,1.73
2023-02-02T17:16:23.023Z,1.70
2023-02-02T17:19:13.345Z,1.63
2023-02-02T17:22:05.291Z,2.10
2023-02-02T17:24:55.335Z,2.30
2023-02-02T17:27:46.339Z,2.05
2023-02-02T17:30:37.042Z,2.50
2023-02-02T17:33:27.930Z,2.33
2023-02-02T17:36:17.668Z,2.35
2023-02-02T17:39:08.222Z,2.78
2023-02-02T17:41:59.456Z,2.78
2023-02-02T17:44:49.527Z,2.28
2023-02-02T17:47:39.927Z,2.28
2023-02-02T17:50:31.371Z,2.53
2023-02-02T17:53:22.178Z,2.55
2023-02-02T17:56:12.089Z,2.85
2023-02-02T17:59:02.029Z,3.83
2023-02-02T18:01:54.898Z,3.58
2023-02-02T18:04:45.765Z,2.38
2023-02-02T18:07:36.174Z,2.80
2023-02-02T18:10:29.931Z,2.67
2023-02-02T18:13:21.724Z,2.97
2023-02-02T18:16:13.063Z,3.13
2023-02-02T18:19:04.508Z,2.83
2023-02-02T18:21:54.939Z,3.38
2023-02-02T18:24:45.124Z,2.80
2023-02-02T18:27:35.535Z,2.20
2023-02-02T18:30:26.186Z,3.03
2023-02-02T18:33:19.610Z,3.13
2023-02-02T18:36:20.330Z,2.60
2023-02-02T18:39:10.529Z,2.88
2023-02-02T18:42:00.579Z,3.10
2023-02-02T18:44:50.976Z,2.50
2023-02-02T18:47:41.578Z,2.95
2023-02-02T18:50:31.657Z,2.40
2023-02-02T18:53:21.447Z,2.42
2023-02-02T18:56:12.873Z,3.88
2023-02-02T18:59:03.668Z,2.30
2023-02-02T19:01:53.671Z,2.50
2023-02-02T19:05:04.581Z,2.53
2023-02-02T19:07:54.862Z,3.08
2023-02-02T19:10:46.001Z,2.28
2023-02-02T19:13:36.142Z,2.60
2023-02-02T19:16:28.854Z,2.10
2023-02-02T19:19:23.113Z,1.90
2023-02-02T19:22:24.465Z,2.67
2023-02-02T19:25:18.850Z,2.40
2023-02-02T19:28:30.655Z,3.00
2023-02-02T19:31:21.047Z,2.00
2023-02-02T19:34:16.966Z,2.17
2023-02-02T19:37:27.633Z,2.28
2023-02-02T19:40:25.785Z,2.10
2023-02-02T19:43:27.206Z,2.03
2023-02-02T19:46:22.552Z,2.30
2023-02-02T19:49:18.061Z,2.05
2023-02-02T19:52:18.712Z,2.10
2023-02-02T19:55:34.983Z,2.22
2023-02-02T19:58:35.345Z,2.10
2023-02-02T20:01:29.363Z,2.30
2023-02-02T20:04:19.781Z,2.17
2023-02-02T20:07:13.884Z,2.25
2023-02-02T20:10:19.939Z,2.40
2023-02-02T20:13:19.761Z,2.53
2023-02-02T20:16:21.328Z,2.50
2023-02-02T20:19:24.239Z,2.60
2023-02-02T20:22:28.624Z,1.95
2023-02-02T20:25:18.864Z,1.90
2023-02-02T20:28:41.493Z,2.33
2023-02-02T20:31:36.741Z,1.80
2023-02-02T20:34:30.389Z,2.13
2023-02-02T20:37:27.161Z,2.50
2023-02-02T20:40:20.491Z,2.53
2023-02-02T20:43:10.475Z,3.20
2023-02-02T20:46:00.632Z,2.20
2023-02-02T20:48:50.944Z,1.92
2023-02-02T20:51:41.313Z,1.60
2023-02-02T20:54:32.758Z,1.65
2023-02-02T20:57:23.150Z,1.52
2023-02-02T21:00:16.243Z,1.05
2023-02-02T21:03:06.644Z,1.60
2023-02-02T21:05:56.700Z,1.85
2023-02-02T21:08:51.402Z,1.67
2023-02-02T21:11:42.039Z,1.63
2023-02-02T21:14:32.201Z,1.80
2023-02-02T21:17:22.869Z,1.67
2023-02-02T21:20:14.815Z,1.70
2023-02-02T21:23:04.659Z,1.77
2023-02-02T21:25:54.586Z,1.90
2023-02-02T21:28:45.269Z,1.90
2023-02-02T21:31:39.689Z,1.73
2023-02-02T21:34:30.944Z,1.70
2023-02-02T21:37:21.132Z,2.00
2023-02-02T21:40:14.626Z,1.40
2023-02-02T21:43:17.545Z,1.73
2023-02-02T21:46:29.718Z,1.55
2023-02-02T21:49:26.239Z,1.90
2023-02-02T21:52:18.651Z,1.83
2023-02-02T21:55:34.382Z,1.73
2023-02-02T21:58:25.883Z,2.08
2023-02-02T22:01:29.521Z,1.70
2023-02-02T22:04:25.993Z,1.50
2023-02-02T22:07:16.604Z,2.30
2023-02-02T22:10:25.189Z,1.95
2023-02-02T22:13:22.066Z,1.90
2023-02-02T22:16:18.890Z,1.63
2023-02-02T22:19:24.629Z,1.67
2023-02-02T22:22:25.490Z,1.98
2023-02-02T22:25:18.719Z,1.65
2023-02-02T22:28:18.662Z,1.63
2023-02-02T22:31:10.602Z,1.60
2023-02-02T22:34:00.702Z,1.40
2023-02-02T22:36:51.221Z,1.50
2023-02-02T22:39:42.850Z,1.40
2023-02-02T22:42:32.891Z,1.65
2023-02-02T22:45:23.888Z,1.55
2023-02-02T22:48:15.339Z,1.60
2023-02-02T22:51:05.421Z,1.42
2023-02-02T22:53:55.822Z,1.85
2023-02-02T22:56:46.353Z,1.10
2023-02-02T22:59:36.727Z,0.90
2023-02-02T23:02:27.105Z,1.58
2023-02-02T23:05:19.139Z,1.38
2023-02-02T23:08:10.128Z,1.23
2023-02-02T23:11:00.327Z,1.83
2023-02-02T23:13:51.154Z,1.50
2023-02-02T23:16:42.178Z,1.92
2023-02-02T23:19:32.406Z,1.20
2023-02-02T23:22:22.654Z,1.55
2023-02-02T23:25:14.634Z,1.50
2023-02-02T23:28:05.806Z,1.42
2023-02-02T23:30:59.159Z,1.20
2023-02-02T23:33:49.926Z,1.48
2023-02-02T23:36:42.898Z,1.25
2023-02-02T23:39:32.956Z,1.40
2023-02-02T23:42:23.855Z,1.33
2023-02-02T23:45:16.190Z,1.50
2023-02-02T23:48:07.682Z,1.50
2023-02-02T23:50:59.590Z,1.60
2023-02-02T23:53:50.491Z,1.35
2023-02-02T23:56:41.989Z,1.30
2023-02-02T23:59:32.520Z,1.45
